createdAt,value
2022-09-03T00:02:50.707Z,71.43
2022-09-03T00:08:04.478Z,64.63
2022-09-03T00:13:10.653Z,54.82
2022-09-03T00:18:22.061Z,53.42
2022-09-03T00:23:28.614Z,55.51
2022-09-03T00:28:41.740Z,58.96
2022-09-03T00:33:51.950Z,69.06
2022-09-03T00:38:54.739Z,63.19
2022-09-03T00:44:06.423Z,54.55
2022-09-03T00:49:43.328Z,53.41
2022-09-03T00:55:07.530Z,54.41
2022-09-03T01:00:14.141Z,58.16
2022-09-03T01:05:26.911Z,69.73
2022-09-03T01:10:46.498Z,63.69
2022-09-03T01:16:02.668Z,53.09
2022-09-03T01:21:36.742Z,53.34
2022-09-03T01:27:11.748Z,55.00
2022-09-03T01:32:25.973Z,57.15
2022-09-03T01:38:15.129Z,68.70
2022-09-03T01:43:44.723Z,59.66
2022-09-03T01:49:28.651Z,53.14
2022-09-03T01:54:41.556Z,53.98
2022-09-03T01:59:53.040Z,56.22
2022-09-03T02:05:09.320Z,58.53
2022-09-03T02:10:15.560Z,69.13
2022-09-03T02:15:21.523Z,61.59
2022-09-03T02:20:28.862Z,52.72
2022-09-03T02:25:41.748Z,54.29
2022-09-03T02:30:45.495Z,55.98
2022-09-03T02:35:48.955Z,57.67
2022-09-03T02:40:54.518Z,59.39
2022-09-03T02:46:02.099Z,71.49
2022-09-03T02:51:13.935Z,63.10
2022-09-03T02:56:17.248Z,53.38
2022-09-03T03:01:23.744Z,53.19
2022-09-03T03:06:27.344Z,55.83
2022-09-03T03:11:30.731Z,57.50
2022-09-03T03:16:33.527Z,69.32
2022-09-03T03:21:36.538Z,62.62
2022-09-03T03:26:39.440Z,52.87
2022-09-03T03:31:42.265Z,53.47
2022-09-03T03:36:45.042Z,55.02
2022-09-03T03:41:48.618Z,56.80
2022-09-03T03:46:51.270Z,58.80
2022-09-03T03:51:53.976Z,70.04
2022-09-03T03:56:57.378Z,62.17
2022-09-03T04:02:00.221Z,53.33
2022-09-03T04:07:03.282Z,53.23
2022-09-03T04:12:08.833Z,56.06
2022-09-03T04:17:11.785Z,57.82
2022-09-03T04:22:15.932Z,68.64
2022-09-03T04:27:18.617Z,62.02
2022-09-03T04:32:39.634Z,53.36
2022-09-03T04:37:42.295Z,53.88
2022-09-03T04:42:45.030Z,56.47
2022-09-03T04:48:02.787Z,57.79
2022-09-03T04:53:07.961Z,59.15
2022-09-03T04:58:11.079Z,70.88
2022-09-03T05:03:13.863Z,63.42
2022-09-03T05:08:16.537Z,53.73
2022-09-03T05:13:19.264Z,53.27
2022-09-03T05:18:21.994Z,55.75
2022-09-03T05:23:25.347Z,57.74
2022-09-03T05:28:30.328Z,69.02
2022-09-03T05:33:35.827Z,62.79
2022-09-03T05:38:38.783Z,53.85
2022-09-03T05:43:42.825Z,55.52
2022-09-03T05:48:46.021Z,56.40
2022-09-03T05:53:49.721Z,57.97
2022-09-03T05:58:55.057Z,67.94
2022-09-03T06:04:04.296Z,60.49
2022-09-03T06:09:10.791Z,54.18
2022-09-03T06:14:14.313Z,55.92
2022-09-03T06:19:17.322Z,55.75
2022-09-03T06:24:26.247Z,57.91
2022-09-03T06:29:31.170Z,59.26
2022-09-03T06:34:33.950Z,68.41
2022-09-03T06:39:36.666Z,56.14
2022-09-03T06:44:39.481Z,52.44
2022-09-03T06:49:42.955Z,53.16
2022-09-03T06:54:45.669Z,54.25
2022-09-03T06:59:49.805Z,56.52
2022-09-03T07:04:52.458Z,56.31
2022-09-03T07:09:57.048Z,59.63
2022-09-03T07:14:59.750Z,59.87
2022-09-03T07:20:03.878Z,59.61
2022-09-03T07:25:07.468Z,60.24
2022-09-03T07:30:11.346Z,58.89
2022-09-03T07:35:14.086Z,59.28
2022-09-03T07:40:20.126Z,58.74
2022-09-03T07:45:24.059Z,58.08
2022-09-03T07:50:27.012Z,57.67
2022-09-03T07:55:29.701Z,56.70
2022-09-03T08:00:34.184Z,57.66
2022-09-03T08:05:37.354Z,56.44
2022-09-03T08:10:40.427Z,56.32
2022-09-03T08:15:43.298Z,54.19
2022-09-03T08:20:47.123Z,54.81
2022-09-03T08:25:49.829Z,54.47
2022-09-03T08:30:52.802Z,53.75
2022-09-03T08:35:55.598Z,53.38
2022-09-03T08:41:14.799Z,53.18
2022-09-03T08:46:18.081Z,51.38
2022-09-03T08:51:24.118Z,51.92
2022-09-03T08:56:30.337Z,51.69
2022-09-03T09:01:57.407Z,50.99
2022-09-03T09:07:06.138Z,49.53
2022-09-03T09:12:34.647Z,49.34
2022-09-03T09:18:06.129Z,47.46
2022-09-03T09:23:33.729Z,47.22
2022-09-03T09:28:38.853Z,47.08
2022-09-03T09:33:42.001Z,46.15
2022-09-03T09:38:49.670Z,44.46
2022-09-03T09:44:19.849Z,43.41
2022-09-03T09:49:35.813Z,43.42
2022-09-03T09:54:40.097Z,42.66
2022-09-03T09:59:42.766Z,41.56
2022-09-03T10:04:45.991Z,41.52
2022-09-03T10:10:04.298Z,40.80
2022-09-03T10:15:09.941Z,40.06
2022-09-03T10:20:32.037Z,39.44
2022-09-03T10:25:52.146Z,38.01
2022-09-03T10:31:13.775Z,38.52
2022-09-03T10:36:35.066Z,38.16
2022-09-03T10:42:06.800Z,38.43
2022-09-03T10:47:29.674Z,38.02
2022-09-03T10:53:05.433Z,37.42
2022-09-03T10:58:20.367Z,37.59
2022-09-03T11:03:47.454Z,37.11
2022-09-03T11:09:11.921Z,36.87
2022-09-03T11:14:22.715Z,36.47
2022-09-03T11:19:37.181Z,36.18
2022-09-03T11:24:41.179Z,36.04
2022-09-03T11:30:09.715Z,35.85
2022-09-03T11:35:28.418Z,35.44
2022-09-03T11:40:34.305Z,34.89
2022-09-03T11:45:38.375Z,35.07
2022-09-03T11:50:53.595Z,35.17
2022-09-03T11:56:00.888Z,34.85
2022-09-03T12:01:10.614Z,34.68
2022-09-03T12:06:54.970Z,34.21
2022-09-03T12:12:08.014Z,33.97
2022-09-03T12:17:16.694Z,33.28
2022-09-03T12:22:22.218Z,32.92
2022-09-03T12:27:27.683Z,33.26
2022-09-03T12:32:33.411Z,33.37
2022-09-03T12:48:43.454Z,33.13
2022-09-03T12:53:47.786Z,33.05
2022-09-03T12:58:53.521Z,32.48
2022-09-03T13:04:02.197Z,31.73
2022-09-03T13:09:09.469Z,31.64
2022-09-03T13:14:14.126Z,30.73
2022-09-03T13:19:45.014Z,30.44
2022-09-03T13:25:12.586Z,30.61
2022-09-03T13:30:56.823Z,29.93
2022-09-03T13:36:10.144Z,28.99
2022-09-03T13:41:37.691Z,28.62
2022-09-03T13:46:40.348Z,29.04
2022-09-03T13:51:46.770Z,29.42
2022-09-03T13:57:02.723Z,29.47
2022-09-03T14:02:05.447Z,30.38
2022-09-03T14:07:23.235Z,31.56
2022-09-03T14:13:19.416Z,32.23
2022-09-03T14:18:48.394Z,32.53
2022-09-03T14:24:10.979Z,30.16
2022-09-03T14:29:14.272Z,29.19
2022-09-03T14:34:23.397Z,26.27
2022-09-03T14:39:52.499Z,27.18
2022-09-03T14:45:23.813Z,27.09
2022-09-03T14:50:39.113Z,26.60
2022-09-03T14:56:00.723Z,23.73
2022-09-03T15:01:16.151Z,22.34
2022-09-03T15:06:50.081Z,20.74
2022-09-03T15:11:59.191Z,20.15
2022-09-03T15:17:26.728Z,18.47
2022-09-03T15:22:58.092Z,18.85
2022-09-03T15:28:33.536Z,19.14
2022-09-03T15:33:58.210Z,19.76
2022-09-03T15:39:10.555Z,21.80
2022-09-03T15:44:20.181Z,22.86
2022-09-03T15:49:28.865Z,21.33
2022-09-03T15:54:59.853Z,19.88
2022-09-03T16:00:06.510Z,19.55
2022-09-03T16:05:20.186Z,18.73
2022-09-03T16:10:37.173Z,18.69
2022-09-03T16:15:52.118Z,18.47
2022-09-03T16:21:07.953Z,18.36
2022-09-03T16:26:21.754Z,20.80
2022-09-03T16:31:42.787Z,22.14
2022-09-03T16:36:59.046Z,24.04
2022-09-03T16:42:11.554Z,26.14
2022-09-03T16:47:32.719Z,27.55
2022-09-03T16:52:44.802Z,28.04
2022-09-03T16:58:00.167Z,29.37
2022-09-03T17:03:11.209Z,30.26
2022-09-03T17:08:14.129Z,30.68
2022-09-03T17:13:40.298Z,32.30
2022-09-03T17:19:14.485Z,33.30
2022-09-03T17:24:36.136Z,34.12
2022-09-03T17:29:54.749Z,35.28
2022-09-03T17:35:00.408Z,36.05
2022-09-03T17:40:30.878Z,36.75
2022-09-03T17:46:11.193Z,37.39
2022-09-03T17:52:01.422Z,38.28
2022-09-03T17:57:17.765Z,38.99
2022-09-03T18:02:50.647Z,40.11
2022-09-03T18:08:08.662Z,40.76
2022-09-03T18:13:11.301Z,41.37
2022-09-03T18:18:38.869Z,41.88
2022-09-03T18:24:13.674Z,42.41
2022-09-03T18:29:55.207Z,42.65
2022-09-03T18:35:16.697Z,43.18
2022-09-03T18:40:46.380Z,43.59
2022-09-03T18:52:22.717Z,44.30
2022-09-03T18:57:54.357Z,44.81
2022-09-03T19:03:18.513Z,45.17
2022-09-03T19:08:46.890Z,45.42
2022-09-03T19:14:10.180Z,45.89
2022-09-03T19:19:56.698Z,46.43
2022-09-03T19:25:26.562Z,46.58
2022-09-03T19:31:10.107Z,46.92
2022-09-03T19:36:46.186Z,47.07
2022-09-03T19:42:17.035Z,47.54
2022-09-03T19:47:55.463Z,47.86
2022-09-03T19:53:17.995Z,48.28
2022-09-03T19:58:44.411Z,48.80
2022-09-03T20:04:06.565Z,49.01
2022-09-03T20:09:28.807Z,49.49
2022-09-03T20:14:34.802Z,49.96
2022-09-03T20:19:46.768Z,50.47
2022-09-03T20:25:15.473Z,50.59
2022-09-03T20:30:27.492Z,50.69
2022-09-03T20:35:38.548Z,51.09
2022-09-03T20:40:46.971Z,51.35
2022-09-03T20:46:06.108Z,51.58
2022-09-03T20:51:22.888Z,52.02
2022-09-03T20:56:43.499Z,52.23
2022-09-03T21:01:55.327Z,52.44
2022-09-03T21:07:40.131Z,52.85
2022-09-03T21:12:50.966Z,52.98
2022-09-03T21:18:33.626Z,53.53
2022-09-03T21:23:55.031Z,53.47
2022-09-03T21:28:57.731Z,53.68
2022-09-03T21:34:18.787Z,54.35
2022-09-03T21:39:28.500Z,54.32
2022-09-03T21:44:37.301Z,54.89
2022-09-03T21:49:55.341Z,55.27
2022-09-03T21:54:58.693Z,55.23
2022-09-03T22:00:08.477Z,55.70
2022-09-03T22:05:11.189Z,55.90
2022-09-03T22:10:29.760Z,56.15
2022-09-03T22:15:33.418Z,56.20
2022-09-03T22:20:37.218Z,56.44
2022-09-03T22:26:00.728Z,56.70
2022-09-03T22:31:29.693Z,56.97
2022-09-03T22:36:41.759Z,57.02
2022-09-03T22:42:02.444Z,57.37
2022-09-03T22:47:33.658Z,57.61
2022-09-03T22:52:46.357Z,57.70
2022-09-03T22:58:02.799Z,57.93
2022-09-03T23:03:10.739Z,57.90
2022-09-03T23:08:25.594Z,57.21
2022-09-03T23:13:43.100Z,58.14
2022-09-03T23:18:48.342Z,58.39
2022-09-03T23:24:14.022Z,58.83
2022-09-03T23:29:19.665Z,58.66
2022-09-03T23:34:22.835Z,58.96
2022-09-03T23:39:50.401Z,59.10
2022-09-03T23:45:00.743Z,59.16
2022-09-03T23:50:30.795Z,59.34
2022-09-03T23:55:36.261Z,59.35
